Time;durP1;ratioP1;P1;durP2;ratioP2;P2;SDS_P1;SDS_P2;PMS_P1;PMS_P2;Temp;Humidity;BMP_temperature;BMP_pressure;BME280_temperature;BME280_humidity;BME280_pressure;Samples;Min_cycle;Max_cycle;Signal;HPM_P1;HPM_P2
2022/11/24 00:00:53;;;;;;;;;;;4.70;90.50;;;;;;5072440;28;20036;-89
2022/11/24 00:03:18;;;;;;;;;;;4.60;90.60;;;;;;5073046;28;19991;-89
2022/11/24 00:05:44;;;;;;;;;;;4.50;90.40;;;;;;5073095;28;19943;-89
2022/11/24 00:08:10;;;;;;;;;;;4.50;90.50;;;;;;5072753;28;20396;-89
2022/11/24 00:10:36;;;;;;;;;;;4.40;91.70;;;;;;5072774;28;19944;-89
2022/11/24 00:13:01;;;;;;;;;;;4.20;90.70;;;;;;5072823;28;19952;-89
2022/11/24 00:15:27;;;;;;;;;;;4.20;90.70;;;;;;5072960;28;19941;-89
2022/11/24 00:17:52;;;;;;;;;;;4.10;91.60;;;;;;5072708;28;20455;-89
2022/11/24 00:20:18;;;;;;;;;;;4.00;92.00;;;;;;5072914;28;20275;-89
2022/11/24 00:22:43;;;;;;;;;;;4.10;92.20;;;;;;5072718;28;20460;-89
2022/11/24 00:25:09;;;;;;;;;;;4.20;92.20;;;;;;5072708;28;20367;-89
2022/11/24 00:27:35;;;;;;;;;;;4.20;91.80;;;;;;5072812;28;19954;-89
2022/11/24 00:30:00;;;;;;;;;;;4.10;91.40;;;;;;5072601;28;20452;-89
2022/11/24 00:32:29;;;;;;;;;;;4.00;91.70;;;;;;5072703;28;19939;-89
2022/11/24 00:34:55;;;;;;;;;;;4.00;92.00;;;;;;5072828;28;20196;-89
2022/11/24 00:37:20;;;;;;;;;;;4.00;92.20;;;;;;5072753;28;19936;-89
2022/11/24 00:39:46;;;;;;;;;;;4.00;92.40;;;;;;5071224;28;20043;-89
2022/11/24 00:42:13;;;;;;;;;;;4.10;92.20;;;;;;5072652;28;19939;-89
2022/11/24 00:44:38;;;;;;;;;;;4.00;92.00;;;;;;5072709;28;19944;-89
2022/11/24 00:47:04;;;;;;;;;;;4.00;92.10;;;;;;5072556;28;19956;-89
2022/11/24 00:49:29;;;;;;;;;;;3.90;92.70;;;;;;5072540;28;20151;-89
2022/11/24 00:51:55;;;;;;;;;;;3.90;92.30;;;;;;5072308;28;20615;-89
2022/11/24 00:54:20;;;;;;;;;;;4.00;91.40;;;;;;5072778;28;20430;-89
2022/11/24 00:56:46;;;;;;;;;;;4.00;91.40;;;;;;5072851;28;20387;-89
2022/11/24 00:59:12;;;;;;;;;;;4.10;91.60;;;;;;5072254;28;19948;-88
2022/11/24 01:01:37;;;;;;;;;;;4.00;91.00;;;;;;5072475;28;19947;-89
2022/11/24 01:04:04;;;;;;;;;;;3.70;90.70;;;;;;5072559;28;19940;-89
2022/11/24 01:06:29;;;;;;;;;;;3.50;91.20;;;;;;5072411;28;19960;-89
2022/11/24 01:08:55;;;;;;;;;;;3.40;92.30;;;;;;5072510;28;19950;-89
2022/11/24 01:11:25;;;;;;;;;;;3.40;92.70;;;;;;5072442;28;20003;-89
2022/11/24 01:13:52;;;;;;;;;;;3.50;93.30;;;;;;5075298;28;19978;-89
2022/11/24 01:16:26;;;;;;;;;;;3.60;93.20;;;;;;5075919;28;19965;-89
2022/11/24 01:18:52;;;;;;;;;;;3.80;93.10;;;;;;5075651;28;19941;-89
2022/11/24 01:21:19;;;;;;;;;;;3.80;93.20;;;;;;5075833;28;20040;-89
2022/11/24 01:23:44;;;;;;;;;;;3.80;93.00;;;;;;5075694;28;19968;-89
2022/11/24 01:26:11;;;;;;;;;;;3.80;93.00;;;;;;5075762;28;19963;-89
2022/11/24 01:28:37;;;;;;;;;;;3.80;92.80;;;;;;5075491;28;20347;-89
2022/11/24 01:31:04;;;;;;;;;;;3.90;92.60;;;;;;5075081;28;19990;-89
2022/11/24 01:33:29;;;;;;;;;;;4.00;92.40;;;;;;5074454;28;20484;-89
2022/11/24 01:35:56;;;;;;;;;;;4.00;92.10;;;;;;5075620;28;20040;-89
2022/11/24 01:38:21;;;;;;;;;;;4.10;91.90;;;;;;5075320;28;19954;-89
2022/11/24 01:40:48;;;;;;;;;;;4.00;91.50;;;;;;5075568;28;20042;-89
2022/11/24 01:43:14;;;;;;;;;;;3.90;91.80;;;;;;5075834;28;20028;-89
2022/11/24 01:45:40;;;;;;;;;;;3.80;91.30;;;;;;5075484;28;20450;-88
2022/11/24 01:48:08;;;;;;;;;;;3.70;92.40;;;;;;5075146;28;20005;-89
2022/11/24 01:50:34;;;;;;;;;;;3.90;92.40;;;;;;5055318;28;20412;-89
2022/11/24 01:53:00;;;;;;;;;;;3.90;91.80;;;;;;5037309;28;20049;-88
2022/11/24 01:55:28;;;;;;;;;;;3.80;92.10;;;;;;5055288;28;19994;-89
2022/11/24 01:57:57;;;;;;;;;;;3.80;91.70;;;;;;5055183;28;19951;-88
2022/11/24 02:00:23;;;;;;;;;;;3.70;91.50;;;;;;5072706;28;20355;-89
2022/11/24 02:02:48;;;;;;;;;;;3.70;91.70;;;;;;5075135;28;20031;-88
2022/11/24 02:05:29;;;;;;;;;;;3.70;91.50;;;;;;5075049;28;20036;-90
2022/11/24 02:07:56;;;;;;;;;;;3.70;91.50;;;;;;5074884;28;20311;-89
2022/11/24 02:10:22;;;;;;;;;;;3.70;91.80;;;;;;5074845;28;20418;-89
2022/11/24 02:12:49;;;;;;;;;;;3.70;91.40;;;;;;5074486;28;19989;-89
2022/11/24 02:15:15;;;;;;;;;;;3.60;91.70;;;;;;5073335;28;19979;-89
2022/11/24 02:17:41;;;;;;;;;;;3.60;91.50;;;;;;5074494;28;19957;-89
2022/11/24 02:20:07;;;;;;;;;;;3.60;91.40;;;;;;5074780;28;19939;-89
2022/11/24 02:22:36;;;;;;;;;;;3.60;91.20;;;;;;5074617;28;19973;-89
2022/11/24 02:25:20;;;;;;;;;;;3.50;91.20;;;;;;5073689;28;19960;-89
2022/11/24 02:27:45;;;;;;;;;;;3.40;91.90;;;;;;5074544;28;19960;-88
2022/11/24 02:30:11;;;;;;;;;;;3.30;92.60;;;;;;5074571;28;20335;-89
2022/11/24 02:32:38;;;;;;;;;;;3.40;92.60;;;;;;5074469;28;19944;-89
2022/11/24 02:35:05;;;;;;;;;;;3.30;92.30;;;;;;5074146;28;20407;-89
2022/11/24 02:37:30;;;;;;;;;;;3.40;92.30;;;;;;5074236;28;20394;-89
2022/11/24 02:39:56;;;;;;;;;;;3.50;91.80;;;;;;5074635;28;19968;-89
2022/11/24 02:42:22;;;;;;;;;;;3.40;92.20;;;;;;5074285;28;20313;-89
2022/11/24 02:44:49;;;;;;;;;;;3.50;92.20;;;;;;5074026;28;19945;-89
2022/11/24 02:47:15;;;;;;;;;;;3.50;91.80;;;;;;5074132;28;20367;-89
2022/11/24 02:49:41;;;;;;;;;;;3.60;91.70;;;;;;5074202;28;19942;-89
2022/11/24 02:52:06;;;;;;;;;;;3.50;91.80;;;;;;5073939;28;19956;-90
2022/11/24 02:54:32;;;;;;;;;;;3.60;91.80;;;;;;5073846;28;20004;-89
2022/11/24 02:56:58;;;;;;;;;;;3.70;91.20;;;;;;5074253;28;19956;-89
2022/11/24 02:59:23;;;;;;;;;;;3.70;91.10;;;;;;5073984;28;20387;-89
2022/11/24 03:01:49;;;;;;;;;;;3.80;90.60;;;;;;5074200;28;19941;-89
2022/11/24 03:04:15;;;;;;;;;;;3.60;90.40;;;;;;5073649;28;19944;-89
2022/11/24 03:06:42;;;;;;;;;;;3.50;90.20;;;;;;5073625;28;19963;-89
2022/11/24 03:09:07;;;;;;;;;;;3.50;90.40;;;;;;5073821;28;19945;-89
2022/11/24 03:11:33;;;;;;;;;;;3.40;90.50;;;;;;5073731;28;19938;-89
2022/11/24 03:13:59;;;;;;;;;;;3.40;90.90;;;;;;5073458;28;19953;-89
2022/11/24 03:16:24;;;;;;;;;;;3.30;91.30;;;;;;5073657;28;20338;-89
2022/11/24 03:18:50;;;;;;;;;;;3.30;91.60;;;;;;5073615;28;20502;-89
2022/11/24 03:21:16;;;;;;;;;;;3.30;92.00;;;;;;5073567;28;19942;-89
2022/11/24 03:23:41;;;;;;;;;;;3.30;92.10;;;;;;5073162;28;20010;-89
2022/11/24 03:26:11;;;;;;;;;;;3.40;92.20;;;;;;5073388;28;19941;-89
2022/11/24 03:28:37;;;;;;;;;;;3.50;92.10;;;;;;5073445;28;19938;-89
2022/11/24 03:31:02;;;;;;;;;;;3.50;91.50;;;;;;5073483;28;20307;-89
2022/11/24 03:33:28;;;;;;;;;;;3.60;91.40;;;;;;5071876;28;19945;-89
2022/11/24 03:35:53;;;;;;;;;;;3.60;91.00;;;;;;5073368;28;19940;-89
2022/11/24 03:38:19;;;;;;;;;;;3.50;90.30;;;;;;5073343;28;19939;-89
2022/11/24 03:40:45;;;;;;;;;;;3.40;90.00;;;;;;5073326;28;19943;-89
2022/11/24 03:43:10;;;;;;;;;;;3.50;90.20;;;;;;5073086;28;19980;-89
2022/11/24 03:45:36;;;;;;;;;;;3.40;89.80;;;;;;5073307;28;19950;-89
2022/11/24 03:48:01;;;;;;;;;;;3.30;89.90;;;;;;5073127;28;19969;-89
2022/11/24 03:50:27;;;;;;;;;;;3.40;90.50;;;;;;5073244;28;19938;-89
2022/11/24 03:52:52;;;;;;;;;;;3.40;90.40;;;;;;5073010;28;19960;-90
2022/11/24 03:55:18;;;;;;;;;;;3.40;90.20;;;;;;5072883;28;19947;-89
2022/11/24 03:57:43;;;;;;;;;;;3.50;90.00;;;;;;5071826;28;20025;-89
2022/11/24 04:00:10;;;;;;;;;;;3.50;89.50;;;;;;5073120;28;20309;-89
2022/11/24 04:02:36;;;;;;;;;;;3.40;89.40;;;;;;5073082;28;19942;-89
2022/11/24 04:05:01;;;;;;;;;;;3.30;89.50;;;;;;5072903;28;19945;-89
2022/11/24 04:07:27;;;;;;;;;;;3.30;89.90;;;;;;5072910;28;20494;-89
2022/11/24 04:09:52;;;;;;;;;;;3.40;89.90;;;;;;5071763;28;20060;-89
2022/11/24 04:15:02;;;;;;;;;;;3.40;89.60;;;;;;5072725;28;20334;-89
2022/11/24 04:17:27;;;;;;;;;;;3.40;89.10;;;;;;5072749;28;19948;-89
2022/11/24 04:19:53;;;;;;;;;;;3.30;88.60;;;;;;5073215;28;19943;-89
2022/11/24 04:22:19;;;;;;;;;;;3.00;89.70;;;;;;5072730;28;19978;-89
2022/11/24 04:24:44;;;;;;;;;;;3.00;90.80;;;;;;5072625;28;19958;-89
2022/11/24 04:27:10;;;;;;;;;;;3.00;91.10;;;;;;5072817;28;20367;-89
2022/11/24 04:29:35;;;;;;;;;;;3.10;92.30;;;;;;5071537;28;19945;-89
2022/11/24 04:32:01;;;;;;;;;;;3.20;91.70;;;;;;5072856;28;19941;-89
2022/11/24 04:34:26;;;;;;;;;;;3.20;91.30;;;;;;5072819;28;20520;-89
2022/11/24 04:36:52;;;;;;;;;;;3.20;91.00;;;;;;5073007;28;20506;-89
2022/11/24 04:39:17;;;;;;;;;;;3.20;90.90;;;;;;5072739;28;20383;-89
2022/11/24 04:41:43;;;;;;;;;;;3.20;91.20;;;;;;5072708;28;19939;-89
2022/11/24 04:44:09;;;;;;;;;;;3.30;91.10;;;;;;5072704;28;20396;-90
2022/11/24 04:46:34;;;;;;;;;;;3.30;91.10;;;;;;5072580;28;19956;-89
2022/11/24 04:49:00;;;;;;;;;;;3.20;91.30;;;;;;5075926;28;19937;-89
2022/11/24 04:51:25;;;;;;;;;;;3.20;91.50;;;;;;5076409;28;19989;-89
2022/11/24 04:53:51;;;;;;;;;;;3.40;91.50;;;;;;5076189;28;19961;-89
2022/11/24 04:56:16;;;;;;;;;;;3.40;91.10;;;;;;5076329;28;20317;-90
2022/11/24 04:58:42;;;;;;;;;;;3.40;90.90;;;;;;5076243;28;19937;-89
2022/11/24 05:01:08;;;;;;;;;;;3.40;90.40;;;;;;5076238;28;19937;-89
2022/11/24 05:03:34;;;;;;;;;;;3.30;89.70;;;;;;5076114;28;20693;-89
2022/11/24 05:06:00;;;;;;;;;;;3.10;89.50;;;;;;5076098;28;19935;-89
2022/11/24 05:08:26;;;;;;;;;;;3.10;90.10;;;;;;5076330;28;20417;-88
2022/11/24 05:10:51;;;;;;;;;;;3.00;90.70;;;;;;5075994;28;19943;-89
2022/11/24 05:13:17;;;;;;;;;;;3.00;90.60;;;;;;5074262;28;19946;-89
2022/11/24 05:15:42;;;;;;;;;;;3.00;90.40;;;;;;5074502;28;19944;-89
2022/11/24 05:18:10;;;;;;;;;;;3.00;90.00;;;;;;5075909;28;20026;-89
2022/11/24 05:20:36;;;;;;;;;;;2.80;91.20;;;;;;5075928;28;19995;-89
2022/11/24 05:23:05;;;;;;;;;;;2.80;92.30;;;;;;5075684;28;19973;-89
2022/11/24 05:25:31;;;;;;;;;;;3.00;91.80;;;;;;5075628;28;20424;-89
2022/11/24 05:28:00;;;;;;;;;;;3.30;91.10;;;;;;5075683;28;20454;-89
2022/11/24 05:30:26;;;;;;;;;;;3.30;89.70;;;;;;5075748;28;19996;-90
2022/11/24 05:32:51;;;;;;;;;;;3.20;89.90;;;;;;5075963;28;19938;-89
2022/11/24 05:35:17;;;;;;;;;;;3.20;89.90;;;;;;5075450;28;20435;-89
2022/11/24 05:37:43;;;;;;;;;;;3.30;90.10;;;;;;5074344;28;19944;-89
2022/11/24 05:40:09;;;;;;;;;;;3.50;89.90;;;;;;5074405;28;20434;-89
2022/11/24 05:42:40;;;;;;;;;;;3.40;89.30;;;;;;5075519;28;19943;-89
2022/11/24 05:45:08;;;;;;;;;;;3.40;89.10;;;;;;5075558;28;19944;-89
2022/11/24 05:47:33;;;;;;;;;;;3.30;89.30;;;;;;5075251;28;19986;-89
2022/11/24 05:49:59;;;;;;;;;;;3.20;89.20;;;;;;5075185;28;20355;-89
2022/11/24 05:52:24;;;;;;;;;;;2.70;88.70;;;;;;5075191;28;20447;-89
2022/11/24 05:54:50;;;;;;;;;;;2.80;90.80;;;;;;5075058;28;19947;-89
2022/11/24 05:57:16;;;;;;;;;;;2.80;90.50;;;;;;5075267;28;19992;-89
2022/11/24 05:59:41;;;;;;;;;;;3.00;91.10;;;;;;5074071;28;19987;-89
2022/11/24 06:02:08;;;;;;;;;;;3.10;90.70;;;;;;5075114;28;20383;-89
2022/11/24 06:04:34;;;;;;;;;;;3.20;90.60;;;;;;5074623;28;19944;-89
2022/11/24 06:07:00;;;;;;;;;;;3.30;90.60;;;;;;5075056;28;20405;-89
2022/11/24 06:09:25;;;;;;;;;;;3.10;89.80;;;;;;5074993;28;19941;-89
2022/11/24 06:11:51;;;;;;;;;;;3.00;89.80;;;;;;5073711;28;20454;-90
2022/11/24 06:14:17;;;;;;;;;;;2.90;89.90;;;;;;5074523;28;20374;-91
2022/11/24 06:16:42;;;;;;;;;;;2.80;89.70;;;;;;5075120;28;20416;-90
2022/11/24 06:19:08;;;;;;;;;;;2.70;89.20;;;;;;5073273;28;19944;-89
2022/11/24 06:21:34;;;;;;;;;;;2.50;89.00;;;;;;5074621;28;19938;-89
2022/11/24 06:23:59;;;;;;;;;;;2.50;89.20;;;;;;5072927;28;20422;-89
2022/11/24 06:26:25;;;;;;;;;;;2.40;89.90;;;;;;5072978;28;20540;-89
2022/11/24 06:28:51;;;;;;;;;;;2.50;91.20;;;;;;5072673;28;20379;-89
2022/11/24 06:31:16;;;;;;;;;;;2.60;91.90;;;;;;5073444;28;20372;-89
2022/11/24 06:33:42;;;;;;;;;;;2.60;91.60;;;;;;5063786;28;19950;-89
2022/11/24 06:36:09;;;;;;;;;;;2.60;91.90;;;;;;5072491;28;19943;-89
2022/11/24 06:38:35;;;;;;;;;;;2.60;91.90;;;;;;5073127;28;19950;-89
2022/11/24 06:41:02;;;;;;;;;;;2.60;91.60;;;;;;5071804;28;19947;-90
2022/11/24 06:43:28;;;;;;;;;;;2.50;91.20;;;;;;5070446;28;19967;-89
2022/11/24 06:45:54;;;;;;;;;;;2.50;91.60;;;;;;5073318;28;20032;-89
2022/11/24 06:48:20;;;;;;;;;;;2.50;91.60;;;;;;5073356;28;20053;-90
2022/11/24 06:50:45;;;;;;;;;;;2.40;91.40;;;;;;5073295;28;19948;-90
2022/11/24 06:53:11;;;;;;;;;;;2.40;91.80;;;;;;5071364;28;20429;-90
2022/11/24 06:55:37;;;;;;;;;;;2.40;92.90;;;;;;5068393;28;20419;-90
2022/11/24 06:58:03;;;;;;;;;;;2.70;92.80;;;;;;5071755;28;19941;-90
2022/11/24 07:00:30;;;;;;;;;;;3.10;92.20;;;;;;5069611;28;19949;-89
2022/11/24 07:02:59;;;;;;;;;;;3.00;91.50;;;;;;5069585;28;19950;-89
2022/11/24 07:05:25;;;;;;;;;;;2.90;91.30;;;;;;5070911;28;20039;-89
2022/11/24 07:07:50;;;;;;;;;;;3.30;91.40;;;;;;5067665;28;20354;-90
2022/11/24 07:10:16;;;;;;;;;;;3.40;90.20;;;;;;5067287;28;20049;-90
2022/11/24 07:12:41;;;;;;;;;;;3.60;89.90;;;;;;5070007;28;20313;-90
2022/11/24 07:15:07;;;;;;;;;;;3.70;89.60;;;;;;5068993;28;19945;-90
2022/11/24 07:17:39;;;;;;;;;;;3.70;88.90;;;;;;5068184;28;20026;-89
2022/11/24 07:20:05;;;;;;;;;;;3.30;88.10;;;;;;5072171;28;20406;-89
2022/11/24 07:22:31;;;;;;;;;;;3.20;89.10;;;;;;5072060;23;19988;-90
2022/11/24 07:24:56;;;;;;;;;;;3.20;89.40;;;;;;5035840;28;19955;-90
2022/11/24 07:27:22;;;;;;;;;;;3.60;89.30;;;;;;5031567;28;19967;-91
2022/11/24 07:29:47;;;;;;;;;;;3.80;88.80;;;;;;5032799;28;19976;-90
2022/11/24 07:32:13;;;;;;;;;;;3.90;88.30;;;;;;5031811;28;19943;-91
2022/11/24 07:34:38;;;;;;;;;;;3.80;88.20;;;;;;5032251;28;20310;-90
2022/11/24 07:37:04;;;;;;;;;;;3.90;88.00;;;;;;5031286;28;20378;-89
2022/11/24 07:39:29;;;;;;;;;;;3.90;88.20;;;;;;5033694;28;20365;-89
2022/11/24 07:41:56;;;;;;;;;;;3.80;89.00;;;;;;5030151;28;19982;-90
2022/11/24 07:44:22;;;;;;;;;;;3.70;89.70;;;;;;5033102;28;20035;-90
2022/11/24 07:46:50;;;;;;;;;;;3.70;90.00;;;;;;5011835;28;20051;-89
2022/11/24 07:49:16;;;;;;;;;;;3.70;90.60;;;;;;5034832;28;19943;-89
2022/11/24 07:51:41;;;;;;;;;;;3.80;90.50;;;;;;5030806;28;19950;-89
2022/11/24 07:54:07;;;;;;;;;;;3.80;90.80;;;;;;5003820;28;19959;-89
2022/11/24 07:56:32;;;;;;;;;;;3.80;90.90;;;;;;5007021;28;19948;-89
2022/11/24 07:58:58;;;;;;;;;;;3.80;91.20;;;;;;5012129;28;20355;-89
2022/11/24 08:01:23;;;;;;;;;;;4.00;91.40;;;;;;5003418;28;19964;-89
2022/11/24 08:03:49;;;;;;;;;;;4.00;91.30;;;;;;5011050;28;19974;-89
2022/11/24 08:06:15;;;;;;;;;;;4.10;91.40;;;;;;5012303;28;20375;-89
2022/11/24 08:08:40;;;;;;;;;;;4.20;91.40;;;;;;5003939;28;20365;-90
2022/11/24 08:11:07;;;;;;;;;;;4.30;91.70;;;;;;4978631;28;20420;-90
2022/11/24 08:13:33;;;;;;;;;;;4.40;91.60;;;;;;4990807;28;19955;-90
2022/11/24 08:16:02;;;;;;;;;;;4.50;91.00;;;;;;4971094;28;20378;-89
2022/11/24 08:18:27;;;;;;;;;;;4.60;90.50;;;;;;4990814;28;19987;-89
2022/11/24 08:20:56;;;;;;;;;;;4.90;90.00;;;;;;4982786;28;20500;-89
2022/11/24 08:23:21;;;;;;;;;;;4.90;89.90;;;;;;4993824;28;20026;-89
2022/11/24 08:25:47;;;;;;;;;;;5.00;90.00;;;;;;4993301;28;20295;-89
2022/11/24 08:28:12;;;;;;;;;;;5.20;90.40;;;;;;4996634;28;20281;-89
2022/11/24 08:30:38;;;;;;;;;;;5.30;90.60;;;;;;4984237;28;20336;-89
2022/11/24 08:33:03;;;;;;;;;;;5.40;90.30;;;;;;4974251;28;21142;-90
2022/11/24 08:35:29;;;;;;;;;;;5.50;90.20;;;;;;4994683;28;19956;-88
2022/11/24 08:37:54;;;;;;;;;;;5.60;90.10;;;;;;4999962;28;19955;-88
2022/11/24 08:40:20;;;;;;;;;;;5.70;89.90;;;;;;4988176;28;21235;-89
2022/11/24 08:42:46;;;;;;;;;;;5.90;89.70;;;;;;5005584;28;19972;-89
2022/11/24 08:45:11;;;;;;;;;;;6.00;89.10;;;;;;5006489;28;19958;-89
2022/11/24 08:47:37;;;;;;;;;;;6.20;88.00;;;;;;4995301;28;20263;-90
2022/11/24 08:50:04;;;;;;;;;;;6.40;87.00;;;;;;4983583;28;20261;-90
2022/11/24 08:52:30;;;;;;;;;;;6.60;85.40;;;;;;4992334;28;19981;-90
2022/11/24 08:54:55;;;;;;;;;;;6.80;84.70;;;;;;4991479;28;20393;-90
2022/11/24 08:57:21;;;;;;;;;;;6.90;83.40;;;;;;4990392;28;20412;-90
2022/11/24 08:59:46;;;;;;;;;;;7.10;83.40;;;;;;4986886;28;19950;-89
2022/11/24 09:02:12;;;;;;;;;;;7.10;83.70;;;;;;4983731;28;20562;-89
2022/11/24 09:04:38;;;;;;;;;;;7.30;83.80;;;;;;4994160;28;19953;-90
2022/11/24 09:07:04;;;;;;;;;;;7.50;83.50;;;;;;4993788;28;21082;-90
2022/11/24 09:09:29;;;;;;;;;;;7.90;82.80;;;;;;4986852;28;19960;-89
2022/11/24 09:11:55;;;;;;;;;;;8.20;82.00;;;;;;4990217;28;20372;-90
2022/11/24 09:14:21;;;;;;;;;;;8.40;80.60;;;;;;4993533;28;20764;-90
2022/11/24 09:16:46;;;;;;;;;;;8.70;79.00;;;;;;4988970;28;20395;-90
2022/11/24 09:19:12;;;;;;;;;;;8.80;77.70;;;;;;5008761;28;20327;-89
2022/11/24 09:21:37;;;;;;;;;;;8.90;78.50;;;;;;5013438;28;20419;-89
2022/11/24 09:24:04;;;;;;;;;;;8.70;79.80;;;;;;5020321;28;19971;-89
2022/11/24 09:26:30;;;;;;;;;;;8.80;80.20;;;;;;5013577;28;19954;-89
2022/11/24 09:28:57;;;;;;;;;;;8.80;79.80;;;;;;5013702;28;19976;-89
2022/11/24 09:31:26;;;;;;;;;;;8.80;80.10;;;;;;5009404;28;19948;-89
2022/11/24 09:33:52;;;;;;;;;;;8.90;80.50;;;;;;5012766;28;19957;-89
2022/11/24 09:36:19;;;;;;;;;;;9.00;80.20;;;;;;5016233;28;19950;-90
2022/11/24 09:38:44;;;;;;;;;;;9.10;80.20;;;;;;5012483;28;19951;-89
2022/11/24 09:41:16;;;;;;;;;;;9.30;79.60;;;;;;5013123;28;20002;-90
2022/11/24 09:44:05;;;;;;;;;;;9.60;78.10;;;;;;5011542;28;19955;-90
2022/11/24 09:46:50;;;;;;;;;;;9.70;77.10;;;;;;5014911;28;20027;-90
2022/11/24 09:49:34;;;;;;;;;;;9.80;77.10;;;;;;5013314;28;20002;-90
2022/11/24 09:52:02;;;;;;;;;;;10.00;76.80;;;;;;5013153;28;20448;-90
2022/11/24 09:54:28;;;;;;;;;;;10.10;76.10;;;;;;5013480;28;19941;-89
2022/11/24 09:56:55;;;;;;;;;;;10.00;75.90;;;;;;5011745;28;20465;-90
2022/11/24 09:59:22;;;;;;;;;;;10.00;76.80;;;;;;5012027;28;19980;-90
2022/11/24 10:01:49;;;;;;;;;;;10.10;77.30;;;;;;5008104;28;19941;-89
2022/11/24 10:04:31;;;;;;;;;;;10.10;76.60;;;;;;5005698;28;20047;-89
2022/11/24 10:07:03;;;;;;;;;;;10.20;76.50;;;;;;5011201;28;19949;-89
2022/11/24 10:09:31;;;;;;;;;;;10.30;77.00;;;;;;5010515;28;19949;-89
2022/11/24 10:12:20;;;;;;;;;;;10.40;77.20;;;;;;5002622;28;20410;-90
2022/11/24 10:14:49;;;;;;;;;;;10.40;78.60;;;;;;5009159;28;19946;-90
2022/11/24 10:17:25;;;;;;;;;;;10.40;76.10;;;;;;5006080;28;19951;-90
2022/11/24 10:20:02;;;;;;;;;;;10.60;75.20;;;;;;5011221;28;19945;-91
2022/11/24 10:22:40;;;;;;;;;;;10.60;76.10;;;;;;5009745;28;19972;-90
2022/11/24 10:25:15;;;;;;;;;;;10.60;75.00;;;;;;5010055;28;19975;-90
2022/11/24 10:27:47;;;;;;;;;;;10.80;74.50;;;;;;5006959;28;19979;-91
2022/11/24 10:30:15;;;;;;;;;;;10.80;74.80;;;;;;5013323;28;19950;-90
2022/11/24 10:32:55;;;;;;;;;;;10.90;74.90;;;;;;5009299;28;19943;-90
2022/11/24 10:35:23;;;;;;;;;;;10.90;73.90;;;;;;5011401;28;19953;-90
2022/11/24 10:37:55;;;;;;;;;;;10.80;74.70;;;;;;5012580;28;19979;-90
2022/11/24 10:40:26;;;;;;;;;;;10.80;73.30;;;;;;5013612;28;20061;-90
2022/11/24 10:42:52;;;;;;;;;;;11.10;73.70;;;;;;5009064;28;20064;-90
2022/11/24 10:45:21;;;;;;;;;;;11.40;72.20;;;;;;5008948;28;20001;-90
2022/11/24 10:47:47;;;;;;;;;;;11.60;72.50;;;;;;5012954;28;19964;-91
2022/11/24 10:50:23;;;;;;;;;;;11.70;71.70;;;;;;5009800;28;19999;-91
2022/11/24 10:53:05;;;;;;;;;;;11.80;70.20;;;;;;5013078;28;20054;-90
2022/11/24 10:55:49;;;;;;;;;;;12.00;70.20;;;;;;5009421;28;19945;-90
2022/11/24 10:58:16;;;;;;;;;;;12.20;69.20;;;;;;5011293;28;19948;-91
2022/11/24 11:00:41;;;;;;;;;;;12.30;68.90;;;;;;5007614;28;19950;-90
2022/11/24 11:03:14;;;;;;;;;;;12.10;68.60;;;;;;5010706;28;19955;-90
2022/11/24 11:05:59;;;;;;;;;;;12.00;69.20;;;;;;5002988;28;21805;-90
2022/11/24 11:08:29;;;;;;;;;;;12.10;68.60;;;;;;5013759;28;20049;-90
2022/11/24 11:11:16;;;;;;;;;;;12.30;68.10;;;;;;5013821;28;19941;-90
2022/11/24 11:13:54;;;;;;;;;;;12.40;66.50;;;;;;5013968;28;20335;-90
2022/11/24 11:16:22;;;;;;;;;;;12.80;66.50;;;;;;5013991;28;19941;-91
2022/11/24 11:18:48;;;;;;;;;;;13.10;66.40;;;;;;5013603;28;20398;-90
2022/11/24 11:21:25;;;;;;;;;;;13.30;64.50;;;;;;5013561;28;19959;-90
2022/11/24 11:23:50;;;;;;;;;;;13.40;64.40;;;;;;5012357;28;20336;-91
2022/11/24 11:26:18;;;;;;;;;;;13.50;65.90;;;;;;5012595;28;19950;-90
2022/11/24 11:29:12;;;;;;;;;;;13.60;65.20;;;;;;5013597;28;19959;-90
2022/11/24 11:31:38;;;;;;;;;;;13.70;64.80;;;;;;5013846;28;19941;-91
2022/11/24 11:34:16;;;;;;;;;;;13.90;62.20;;;;;;5014016;28;19946;-91
2022/11/24 11:36:44;;;;;;;;;;;14.40;62.10;;;;;;5013278;28;20029;-91
2022/11/24 11:39:21;;;;;;;;;;;15.30;60.40;;;;;;5013708;28;19944;-91
2022/11/24 11:41:48;;;;;;;;;;;16.40;56.10;;;;;;5013708;28;19940;-91
2022/11/24 11:44:21;;;;;;;;;;;17.00;54.10;;;;;;5013672;28;20040;-91
2022/11/24 11:46:46;;;;;;;;;;;17.40;51.90;;;;;;5013533;28;20015;-91
2022/11/24 11:49:12;;;;;;;;;;;17.10;52.70;;;;;;5013631;28;20397;-90
2022/11/24 11:51:38;;;;;;;;;;;16.90;52.80;;;;;;5013420;28;20308;-90
2022/11/24 11:54:21;;;;;;;;;;;17.30;52.30;;;;;;5013434;28;20401;-91
2022/11/24 11:56:48;;;;;;;;;;;17.50;51.70;;;;;;5012735;28;19945;-91
2022/11/24 11:59:33;;;;;;;;;;;17.90;51.40;;;;;;5013025;28;20067;-91
2022/11/24 12:02:17;;;;;;;;;;;18.80;50.40;;;;;;5013425;28;19942;-91
2022/11/24 12:04:51;;;;;;;;;;;20.00;46.50;;;;;;5013361;28;19940;-91
2022/11/24 12:07:36;;;;;;;;;;;19.50;47.40;;;;;;5012978;28;20436;-91
2022/11/24 12:10:07;;;;;;;;;;;20.30;45.50;;;;;;5013375;28;19950;-91
2022/11/24 12:12:33;;;;;;;;;;;21.10;44.20;;;;;;5013580;28;19946;-91
2022/11/24 12:15:14;;;;;;;;;;;21.70;42.40;;;;;;5013273;28;20315;-91
2022/11/24 12:17:49;;;;;;;;;;;22.00;41.20;;;;;;4993446;28;19940;-91
2022/11/24 12:20:15;;;;;;;;;;;22.30;40.70;;;;;;4993443;28;19943;-91
2022/11/24 12:22:40;;;;;;;;;;;22.00;40.40;;;;;;4993448;28;20081;-91
2022/11/24 12:25:25;;;;;;;;;;;20.80;43.00;;;;;;4995045;28;20475;-91
2022/11/24 12:28:04;;;;;;;;;;;20.30;44.60;;;;;;5011411;28;19957;-90
2022/11/24 12:30:45;;;;;;;;;;;20.10;45.00;;;;;;5005533;28;20008;-90
2022/11/24 12:33:15;;;;;;;;;;;19.60;46.10;;;;;;5002071;28;19950;-91
2022/11/24 12:35:43;;;;;;;;;;;20.50;44.00;;;;;;5011764;28;19999;-91
2022/11/24 12:38:17;;;;;;;;;;;20.90;43.10;;;;;;5009823;28;20063;-91
2022/11/24 12:41:01;;;;;;;;;;;21.30;42.40;;;;;;5010428;28;19943;-91
2022/11/24 12:43:40;;;;;;;;;;;21.50;42.20;;;;;;5005044;28;19949;-91
2022/11/24 12:46:24;;;;;;;;;;;21.50;42.70;;;;;;5004376;28;20034;-91
2022/11/24 12:48:57;;;;;;;;;;;22.40;41.10;;;;;;5000833;28;20409;-91
2022/11/24 12:51:32;;;;;;;;;;;22.90;38.50;;;;;;5004074;28;19959;-91
2022/11/24 12:54:00;;;;;;;;;;;22.60;39.00;;;;;;5003240;28;19968;-91
2022/11/24 12:56:30;;;;;;;;;;;22.10;40.10;;;;;;5000109;28;20046;-91
2022/11/24 12:59:14;;;;;;;;;;;21.60;41.50;;;;;;5006300;28;20050;-90
2022/11/24 13:01:58;;;;;;;;;;;21.60;41.00;;;;;;5004688;28;20362;-90
2022/11/24 13:04:35;;;;;;;;;;;21.00;42.10;;;;;;5001455;28;19951;-91
2022/11/24 13:07:10;;;;;;;;;;;20.70;41.30;;;;;;4997043;28;20405;-90
2022/11/24 13:09:36;;;;;;;;;;;20.70;41.50;;;;;;5008256;28;19951;-91
2022/11/24 13:12:12;;;;;;;;;;;21.50;40.40;;;;;;4989620;28;19987;-91
2022/11/24 13:14:38;;;;;;;;;;;22.30;38.40;;;;;;5011711;28;19944;-91
2022/11/24 13:17:25;;;;;;;;;;;22.80;36.90;;;;;;4996553;28;20076;-91
2022/11/24 13:19:50;;;;;;;;;;;23.20;36.20;;;;;;5011404;28;20035;-91
2022/11/24 13:22:23;;;;;;;;;;;23.80;35.10;;;;;;5012660;28;20041;-91
2022/11/24 13:25:08;;;;;;;;;;;24.20;34.20;;;;;;5013010;28;19950;-91
2022/11/24 13:27:41;;;;;;;;;;;24.60;33.60;;;;;;5012946;28;19947;-90
2022/11/24 13:30:27;;;;;;;;;;;24.10;33.30;;;;;;5003877;28;20414;-90
2022/11/24 13:32:59;;;;;;;;;;;21.80;36.70;;;;;;4997158;28;19961;-90
2022/11/24 13:35:24;;;;;;;;;;;20.80;37.50;;;;;;5010110;28;20044;-91
2022/11/24 13:37:50;;;;;;;;;;;20.10;38.40;;;;;;5012035;28;20058;-90
2022/11/24 13:40:17;;;;;;;;;;;19.80;39.30;;;;;;5010209;28;19948;-91
2022/11/24 13:43:06;;;;;;;;;;;20.60;39.20;;;;;;5013081;28;19945;-91
2022/11/24 13:45:37;;;;;;;;;;;21.30;37.10;;;;;;4999134;28;19943;-91
2022/11/24 13:48:18;;;;;;;;;;;21.80;36.40;;;;;;5008113;28;19961;-91
2022/11/24 13:50:49;;;;;;;;;;;21.30;37.60;;;;;;5006324;28;19948;-91
2022/11/24 13:53:21;;;;;;;;;;;21.80;38.60;;;;;;5007916;28;20416;-91
2022/11/24 13:55:57;;;;;;;;;;;22.60;37.50;;;;;;5012561;28;20454;-90
2022/11/24 13:58:31;;;;;;;;;;;23.00;36.30;;;;;;5010487;28;19952;-91
2022/11/24 14:01:06;;;;;;;;;;;23.60;35.10;;;;;;5011791;28;19952;-91
2022/11/24 14:03:40;;;;;;;;;;;22.30;36.30;;;;;;5013422;28;19951;-91
2022/11/24 14:06:13;;;;;;;;;;;22.20;36.50;;;;;;5009781;28;19957;-90
2022/11/24 14:08:38;;;;;;;;;;;21.80;37.00;;;;;;5014190;28;20119;-90
2022/11/24 14:11:11;;;;;;;;;;;20.80;38.80;;;;;;5014973;28;20460;-90
2022/11/24 14:13:36;;;;;;;;;;;21.00;38.80;;;;;;5011353;28;19954;-91
2022/11/24 14:16:12;;;;;;;;;;;20.50;40.30;;;;;;5010161;28;20326;-90
2022/11/24 14:18:39;;;;;;;;;;;20.30;41.00;;;;;;5011147;28;19951;-90
2022/11/24 14:21:24;;;;;;;;;;;21.00;40.10;;;;;;5007255;28;19952;-91
2022/11/24 14:23:49;;;;;;;;;;;21.80;38.00;;;;;;5004875;28;19983;-90
2022/11/24 14:26:19;;;;;;;;;;;22.40;36.30;;;;;;5006279;28;19950;-91
2022/11/24 14:28:44;;;;;;;;;;;22.40;36.30;;;;;;5010251;28;19972;-91
2022/11/24 14:31:18;;;;;;;;;;;22.60;36.10;;;;;;5008421;28;19965;-90
2022/11/24 14:33:44;;;;;;;;;;;22.90;35.90;;;;;;5010445;28;19936;-91
2022/11/24 14:36:13;;;;;;;;;;;23.10;35.70;;;;;;5007835;28;20304;-90